createdAt,value
2023-01-22T00:00:42.777Z,-3.66
2023-01-22T00:03:10.423Z,-3.63
2023-01-22T00:05:37.892Z,-3.80
2023-01-22T00:08:05.800Z,-3.60
2023-01-22T00:10:33.259Z,-3.67
2023-01-22T00:13:00.719Z,-3.70
2023-01-22T00:15:29.514Z,-3.69
2023-01-22T00:17:56.940Z,-3.72
2023-01-22T00:20:24.532Z,-3.73
2023-01-22T00:22:51.976Z,-3.74
2023-01-22T00:25:19.454Z,-3.70
2023-01-22T00:27:46.899Z,-3.90
2023-01-22T00:30:14.603Z,-3.67
2023-01-22T00:32:43.507Z,-3.70
2023-01-22T00:35:10.936Z,-3.71
2023-01-22T00:37:38.559Z,-3.71
2023-01-22T00:40:07.295Z,-3.68
2023-01-22T00:42:34.741Z,-3.78
2023-01-22T00:45:02.214Z,-3.89
2023-01-22T00:47:29.675Z,-3.71
2023-01-22T00:49:59.340Z,-3.67
2023-01-22T00:52:26.804Z,-3.70
2023-01-22T00:54:54.350Z,-3.70
2023-01-22T00:57:21.911Z,-3.72
2023-01-22T00:59:49.777Z,-3.68
2023-01-22T01:02:17.589Z,-3.75
2023-01-22T01:04:45.134Z,-3.69
2023-01-22T01:07:13.968Z,-3.66
2023-01-22T01:09:41.451Z,-3.71
2023-01-22T01:12:09.756Z,-3.73
2023-01-22T01:14:37.317Z,-3.64
2023-01-22T01:17:04.864Z,-3.67
2023-01-22T01:19:32.445Z,-3.58
2023-01-22T01:21:59.915Z,-3.58
2023-01-22T01:24:28.868Z,-3.61
2023-01-22T01:26:56.366Z,-3.65
2023-01-22T01:29:23.865Z,-3.68
2023-01-22T01:31:53.235Z,-3.59
2023-01-22T01:34:20.935Z,-3.61
2023-01-22T01:36:49.715Z,-3.62
2023-01-22T01:39:17.444Z,-3.58
2023-01-22T01:41:46.241Z,-3.69
2023-01-22T01:44:16.351Z,-3.61
2023-01-22T01:46:48.052Z,-3.62
2023-01-22T01:49:26.731Z,-3.64
2023-01-22T01:51:56.753Z,-3.73
2023-01-22T01:54:24.621Z,-3.68
2023-01-22T01:56:58.015Z,-3.72
2023-01-22T01:59:25.729Z,-3.70
2023-01-22T02:01:55.597Z,-3.72
2023-01-22T02:04:24.806Z,-3.72
2023-01-22T02:06:52.303Z,-3.74
2023-01-22T02:09:19.902Z,-3.78
2023-01-22T02:11:48.137Z,-3.81
2023-01-22T02:14:23.046Z,-3.80
2023-01-22T02:17:00.974Z,-3.83
2023-01-22T02:19:28.428Z,-3.85
2023-01-22T02:21:57.234Z,-3.87
2023-01-22T02:24:24.995Z,-3.81
2023-01-22T02:26:52.470Z,-3.84
2023-01-22T02:29:19.974Z,-3.83
2023-01-22T02:31:47.580Z,-3.88
2023-01-22T02:34:15.158Z,-3.87
2023-01-22T02:36:42.613Z,-3.83
2023-01-22T02:39:11.453Z,-3.91
2023-01-22T02:41:38.966Z,-3.83
2023-01-22T02:44:07.301Z,-3.88
2023-01-22T02:46:34.862Z,-3.89
2023-01-22T02:49:02.613Z,-3.91
2023-01-22T02:51:30.166Z,-3.91
2023-01-22T02:53:57.690Z,-4.30
2023-01-22T02:56:26.594Z,-3.94
2023-01-22T02:58:54.168Z,-3.86
2023-01-22T03:01:23.215Z,-3.91
2023-01-22T03:03:52.503Z,-3.86
2023-01-22T03:06:22.126Z,-3.91
2023-01-22T03:08:50.044Z,-3.91
2023-01-22T03:11:17.515Z,-3.90
2023-01-22T03:14:03.954Z,-3.90
2023-01-22T03:16:50.317Z,-3.93
2023-01-22T03:19:35.531Z,-3.88
2023-01-22T03:22:03.099Z,-3.87
2023-01-22T03:24:30.742Z,-3.88
2023-01-22T03:26:58.248Z,-4.02
2023-01-22T03:29:27.091Z,-3.97
2023-01-22T03:31:54.615Z,-3.96
2023-01-22T03:34:24.188Z,-3.99
2023-01-22T03:36:51.653Z,-3.98
2023-01-22T03:39:19.265Z,-3.88
2023-01-22T03:41:46.728Z,-4.00
2023-01-22T03:44:14.263Z,-3.94
2023-01-22T03:46:45.885Z,-3.95
2023-01-22T03:49:14.853Z,-3.94
2023-01-22T03:51:43.985Z,-4.02
2023-01-22T03:54:12.747Z,-3.93
2023-01-22T03:56:41.695Z,-3.89
2023-01-22T03:59:09.768Z,-3.93
2023-01-22T04:01:37.754Z,-4.05
2023-01-22T04:04:06.649Z,-4.03
2023-01-22T04:06:34.145Z,-3.90
2023-01-22T04:09:01.565Z,-3.91
2023-01-22T04:11:29.097Z,-4.03
2023-01-22T04:13:56.880Z,-3.94
2023-01-22T04:16:24.551Z,-3.91
2023-01-22T04:18:52.002Z,-3.91
2023-01-22T04:21:20.825Z,-3.92
2023-01-22T04:23:48.260Z,-3.95
2023-01-22T04:26:15.797Z,-3.93
2023-01-22T04:28:43.290Z,-3.93
2023-01-22T04:31:11.102Z,-3.96
2023-01-22T04:33:38.614Z,-3.94
2023-01-22T04:36:06.529Z,-3.99
2023-01-22T04:38:35.346Z,-3.98
2023-01-22T04:41:02.841Z,-3.93
2023-01-22T04:43:30.279Z,-3.90
2023-01-22T04:45:57.819Z,-3.91
2023-01-22T04:48:25.305Z,-3.94
2023-01-22T04:50:52.808Z,-3.99
2023-01-22T04:53:20.320Z,-3.92
2023-01-22T04:55:49.176Z,-3.91
2023-01-22T04:58:16.704Z,-3.92
2023-01-22T05:00:44.211Z,-4.19
2023-01-22T05:03:12.321Z,-3.91
2023-01-22T05:05:40.299Z,-3.96
2023-01-22T05:08:07.808Z,-3.95
2023-01-22T05:10:35.269Z,-4.00
2023-01-22T05:13:07.994Z,-3.95
2023-01-22T05:15:35.708Z,-3.95
2023-01-22T05:18:03.228Z,-3.92
2023-01-22T05:20:30.667Z,-3.94
2023-01-22T05:22:58.118Z,-3.92
2023-01-22T05:25:25.573Z,-3.99
2023-01-22T05:27:53.030Z,-3.98
2023-01-22T05:30:22.144Z,-3.94
2023-01-22T05:32:49.650Z,-3.89
2023-01-22T05:35:17.239Z,-3.89
2023-01-22T05:37:44.693Z,-3.93
2023-01-22T05:40:13.350Z,-3.91
2023-01-22T05:42:41.087Z,-3.88
2023-01-22T05:45:10.074Z,-3.94
2023-01-22T05:47:39.020Z,-3.87
2023-01-22T05:50:07.067Z,-3.90
2023-01-22T05:52:34.512Z,-3.90
2023-01-22T05:55:02.039Z,-3.84
2023-01-22T05:57:32.894Z,-3.89
2023-01-22T06:00:00.368Z,-3.95
2023-01-22T06:02:27.984Z,-3.89
2023-01-22T06:04:56.911Z,-3.90
2023-01-22T06:07:24.572Z,-3.87
2023-01-22T06:09:52.100Z,-3.93
2023-01-22T06:12:19.617Z,-3.94
2023-01-22T06:14:47.090Z,-3.96
2023-01-22T06:17:14.847Z,-3.89
2023-01-22T06:19:42.318Z,-3.95
2023-01-22T06:22:11.237Z,-3.91
2023-01-22T06:24:38.878Z,-3.94
2023-01-22T06:27:06.440Z,-3.97
2023-01-22T06:29:33.936Z,-3.90
2023-01-22T06:32:01.389Z,-3.90
2023-01-22T06:34:28.887Z,-3.86
2023-01-22T06:36:56.351Z,-3.92
2023-01-22T06:39:25.141Z,-4.02
2023-01-22T06:41:52.606Z,-3.87
2023-01-22T06:44:20.102Z,-3.95
2023-01-22T06:46:47.782Z,-3.97
2023-01-22T06:49:15.506Z,-3.86
2023-01-22T06:51:43.098Z,-3.91
2023-01-22T06:54:12.294Z,-3.91
2023-01-22T06:56:41.108Z,-3.90
2023-01-22T06:59:08.823Z,-3.94
2023-01-22T07:01:36.395Z,-3.99
2023-01-22T07:04:03.979Z,-3.91
2023-01-22T07:06:31.503Z,-3.90
2023-01-22T07:08:59.011Z,-3.85
2023-01-22T07:11:26.577Z,-3.89
2023-01-22T07:13:55.416Z,-3.94
2023-01-22T07:16:22.941Z,-4.04
2023-01-22T07:18:50.512Z,-3.88
2023-01-22T07:21:18.173Z,-3.83
2023-01-22T07:23:45.661Z,-3.90
2023-01-22T07:26:13.151Z,-3.83
2023-01-22T07:28:40.589Z,-3.81
2023-01-22T07:31:11.810Z,-3.88
2023-01-22T07:33:39.617Z,-3.96
2023-01-22T07:36:08.037Z,-3.96
2023-01-22T07:38:35.513Z,-3.90
2023-01-22T07:41:04.339Z,-3.74
2023-01-22T07:43:33.371Z,-3.76
2023-01-22T07:46:02.092Z,-3.88
2023-01-22T07:48:31.271Z,-3.70
2023-01-22T07:51:00.884Z,-3.76
2023-01-22T07:53:28.782Z,-3.74
2023-01-22T07:55:56.432Z,-3.78
2023-01-22T07:58:24.016Z,-3.77
2023-01-22T08:00:51.784Z,-3.64
2023-01-22T08:03:19.388Z,-3.72
2023-01-22T08:05:48.185Z,-3.82
2023-01-22T08:08:17.358Z,-3.74
2023-01-22T08:10:45.645Z,-3.71
2023-01-22T08:13:13.369Z,-3.68
2023-01-22T08:15:43.056Z,-3.73
2023-01-22T08:18:10.952Z,-3.84
2023-01-22T08:20:38.555Z,-3.72
2023-01-22T08:23:07.454Z,-3.77
2023-01-22T08:25:35.288Z,-3.98
2023-01-22T08:28:04.930Z,-3.58
2023-01-22T08:30:33.881Z,-3.61
2023-01-22T08:33:04.068Z,-3.58
2023-01-22T08:35:31.838Z,-3.51
2023-01-22T08:37:59.508Z,-3.58
2023-01-22T08:40:28.442Z,-3.56
2023-01-22T08:42:56.509Z,-3.51
2023-01-22T08:45:24.418Z,-3.45
2023-01-22T08:47:56.193Z,-3.58
2023-01-22T08:50:23.699Z,-3.43
2023-01-22T08:52:51.170Z,-3.35
2023-01-22T08:55:18.681Z,-3.36
2023-01-22T08:57:53.631Z,-3.26
2023-01-22T09:00:21.888Z,-3.24
2023-01-22T09:02:49.338Z,-3.25
2023-01-22T09:05:16.909Z,-3.09
2023-01-22T09:07:44.367Z,-3.13
2023-01-22T09:10:12.818Z,-3.15
2023-01-22T09:12:40.547Z,-3.18
2023-01-22T09:15:10.484Z,-3.40
2023-01-22T09:17:38.001Z,-3.28
2023-01-22T09:20:06.363Z,-3.21
2023-01-22T09:22:33.832Z,-3.30
2023-01-22T09:25:01.329Z,-3.09
2023-01-22T09:27:28.749Z,-3.15
2023-01-22T09:29:56.175Z,-3.13
2023-01-22T09:32:24.958Z,-3.19
2023-01-22T09:34:52.409Z,-3.20
2023-01-22T09:37:19.880Z,-3.10
2023-01-22T09:39:49.490Z,-3.08
2023-01-22T09:42:21.737Z,-3.04
2023-01-22T09:44:52.413Z,-3.17
2023-01-22T09:47:25.339Z,-2.97
2023-01-22T09:50:00.588Z,-3.09
2023-01-22T09:52:30.821Z,-3.13
2023-01-22T09:54:58.448Z,-3.00
2023-01-22T09:57:31.541Z,-3.11
2023-01-22T09:59:59.635Z,-3.08
2023-01-22T10:02:31.743Z,-3.04
2023-01-22T10:05:05.052Z,-3.16
2023-01-22T10:07:37.307Z,-3.00
2023-01-22T10:10:19.163Z,-2.92
2023-01-22T10:12:51.961Z,-3.03
2023-01-22T10:15:23.673Z,-3.04
2023-01-22T10:17:51.544Z,-2.80
2023-01-22T10:20:21.299Z,-2.73
2023-01-22T10:22:49.157Z,-2.67
2023-01-22T10:25:17.383Z,-2.76
2023-01-22T10:27:47.268Z,-2.69
2023-01-22T10:30:22.390Z,-2.86
2023-01-22T10:32:59.403Z,-2.97
2023-01-22T10:35:30.687Z,-2.92
2023-01-22T10:37:59.227Z,-2.85
2023-01-22T10:40:30.726Z,-3.10
2023-01-22T10:43:03.229Z,-2.87
2023-01-22T10:45:30.927Z,-2.88
2023-01-22T10:48:06.405Z,-2.78
2023-01-22T10:50:35.305Z,-3.10
2023-01-22T10:53:04.426Z,-2.84
2023-01-22T10:55:33.881Z,-2.86
2023-01-22T10:58:04.472Z,-2.73
2023-01-22T11:00:46.709Z,-2.74
2023-01-22T11:03:22.080Z,-2.65
2023-01-22T11:05:55.343Z,-2.58
2023-01-22T11:08:27.060Z,-2.65
2023-01-22T11:10:57.504Z,-2.54
2023-01-22T11:13:29.921Z,-2.57
2023-01-22T11:16:03.045Z,-2.56
2023-01-22T11:18:34.996Z,-2.61
2023-01-22T11:21:11.452Z,-2.70
2023-01-22T11:23:48.449Z,-2.64
2023-01-22T11:26:22.780Z,-2.41
2023-01-22T11:28:59.704Z,-2.41
2023-01-22T11:31:40.406Z,-2.54
2023-01-22T11:34:21.202Z,-2.62
2023-01-22T11:37:00.071Z,-2.64
2023-01-22T11:39:40.541Z,-2.66
2023-01-22T11:42:23.376Z,-2.64
2023-01-22T11:45:03.660Z,-2.63
2023-01-22T11:47:50.960Z,-2.53
2023-01-22T11:50:27.319Z,-2.83
2023-01-22T11:53:16.560Z,-2.74
2023-01-22T11:56:06.406Z,-2.71
2023-01-22T11:58:44.063Z,-2.75
2023-01-22T12:01:19.972Z,-2.63
2023-01-22T12:04:33.958Z,-2.57
2023-01-22T12:07:35.413Z,-2.43
2023-01-22T12:10:23.963Z,-2.43
2023-01-22T12:13:01.194Z,-2.59
2023-01-22T12:15:41.641Z,-2.49
2023-01-22T12:18:33.918Z,-2.51
2023-01-22T12:21:09.083Z,-2.64
2023-01-22T12:23:42.592Z,-2.63
2023-01-22T12:26:16.062Z,-2.64
2023-01-22T12:28:49.360Z,-2.58
2023-01-22T12:31:23.862Z,-2.54
2023-01-22T12:33:52.203Z,-2.58
2023-01-22T12:36:25.541Z,-2.69
2023-01-22T12:38:55.585Z,-2.73
2023-01-22T12:41:40.011Z,-2.77
2023-01-22T12:44:17.791Z,-2.78
2023-01-22T12:46:54.676Z,-2.75
2023-01-22T12:49:22.196Z,-2.82
2023-01-22T12:51:51.197Z,-2.83
2023-01-22T12:54:21.866Z,-2.80
2023-01-22T12:56:56.561Z,-3.08
2023-01-22T12:59:32.290Z,-2.78
2023-01-22T13:02:01.590Z,-2.62
2023-01-22T13:04:30.419Z,-2.61
2023-01-22T13:07:06.319Z,-2.46
2023-01-22T13:09:37.750Z,-2.48
2023-01-22T13:12:11.624Z,-2.91
2023-01-22T13:14:43.304Z,-2.61
2023-01-22T13:17:20.043Z,-2.89
2023-01-22T13:19:50.414Z,-2.81
2023-01-22T13:22:21.858Z,-2.77
2023-01-22T13:24:50.534Z,-2.80
2023-01-22T13:27:26.315Z,-2.73
2023-01-22T13:29:54.065Z,-2.67
2023-01-22T13:32:23.621Z,-2.66
2023-01-22T13:34:51.095Z,-2.67
2023-01-22T13:37:23.035Z,-2.64
2023-01-22T13:39:50.498Z,-2.57
2023-01-22T13:42:18.314Z,-2.44
2023-01-22T13:44:49.424Z,-2.62
2023-01-22T13:47:28.287Z,-2.44
2023-01-22T13:49:56.227Z,-2.52
2023-01-22T13:52:25.087Z,-2.53
2023-01-22T13:55:00.133Z,-2.73
2023-01-22T13:57:27.638Z,-2.70
2023-01-22T13:59:58.581Z,-2.80
2023-01-22T14:02:30.598Z,-2.75
2023-01-22T14:04:58.438Z,-2.78
2023-01-22T14:07:27.785Z,-2.73
2023-01-22T14:09:56.225Z,-2.73
2023-01-22T14:12:25.253Z,-2.71
2023-01-22T14:14:52.839Z,-2.68
2023-01-22T14:17:28.629Z,-2.67
2023-01-22T14:19:56.428Z,-2.62
2023-01-22T14:22:24.618Z,-2.62
2023-01-22T14:24:52.937Z,-2.71
2023-01-22T14:27:21.236Z,-2.72
2023-01-22T14:29:48.667Z,-2.68
2023-01-22T14:32:16.192Z,-2.78
2023-01-22T14:34:44.958Z,-2.67
2023-01-22T14:37:16.363Z,-2.64
2023-01-22T14:39:43.810Z,-2.66
2023-01-22T14:42:11.249Z,-2.59
2023-01-22T14:44:38.695Z,-2.57
2023-01-22T14:47:06.375Z,-2.72
2023-01-22T14:49:34.758Z,-2.70
2023-01-22T14:52:03.992Z,-2.71
2023-01-22T14:54:31.475Z,-2.66
2023-01-22T14:57:02.813Z,-2.64
2023-01-22T14:59:30.654Z,-2.70
2023-01-22T15:01:58.105Z,-2.73
2023-01-22T15:04:25.553Z,-2.69
2023-01-22T15:06:53.012Z,-2.74
2023-01-22T15:09:21.808Z,-2.75
2023-01-22T15:11:49.268Z,-2.68
2023-01-22T15:14:16.789Z,-2.76
2023-01-22T15:16:44.242Z,-2.77
2023-01-22T15:19:11.655Z,-2.76
2023-01-22T15:21:39.182Z,-2.68
2023-01-22T15:24:07.169Z,-2.77
2023-01-22T15:26:37.572Z,-2.72
2023-01-22T15:29:06.972Z,-2.71
2023-01-22T15:31:35.213Z,-2.90
2023-01-22T15:34:03.877Z,-2.64
2023-01-22T15:36:33.832Z,-2.74
2023-01-22T15:39:01.344Z,-2.73
2023-01-22T15:41:30.839Z,-2.90
2023-01-22T15:44:01.304Z,-2.92
2023-01-22T15:46:30.539Z,-2.75
2023-01-22T15:48:59.569Z,-2.92
2023-01-22T15:51:28.522Z,-2.72
2023-01-22T15:53:58.006Z,-2.78
2023-01-22T15:56:28.336Z,-2.79
2023-01-22T15:58:56.635Z,-2.78
2023-01-22T16:01:26.145Z,-2.78
2023-01-22T16:03:54.207Z,-2.74
2023-01-22T16:06:23.436Z,-2.82
2023-01-22T16:08:52.356Z,-2.74
2023-01-22T16:11:20.880Z,-2.68
2023-01-22T16:13:48.712Z,-2.68
2023-01-22T16:16:18.192Z,-2.76
2023-01-22T16:18:48.381Z,-2.81
2023-01-22T16:21:17.030Z,-2.73
2023-01-22T16:23:46.730Z,-2.77
2023-01-22T16:26:17.234Z,-2.76
2023-01-22T16:28:45.576Z,-2.85
2023-01-22T16:31:15.726Z,-2.81
2023-01-22T16:33:44.877Z,-2.83
2023-01-22T16:36:16.048Z,-2.78
2023-01-22T16:38:44.225Z,-2.81
2023-01-22T16:41:24.907Z,-2.80
2023-01-22T16:43:54.685Z,-2.84
2023-01-22T16:46:23.772Z,-2.92
2023-01-22T16:48:57.122Z,-2.83
2023-01-22T16:51:28.346Z,-2.89
2023-01-22T16:53:56.358Z,-2.84
2023-01-22T16:56:23.816Z,-2.83
2023-01-22T16:58:51.272Z,-2.84
2023-01-22T17:01:18.757Z,-2.87
2023-01-22T17:03:46.269Z,-2.86
2023-01-22T17:06:27.893Z,-2.83
2023-01-22T17:08:55.407Z,-2.81
2023-01-22T17:11:23.176Z,-2.77
2023-01-22T17:13:50.917Z,-2.82
2023-01-22T17:16:19.310Z,-2.86
2023-01-22T17:18:47.427Z,-2.89
2023-01-22T17:21:17.542Z,-2.88
2023-01-22T17:23:46.527Z,-2.82
2023-01-22T17:26:15.849Z,-2.82
2023-01-22T17:28:43.835Z,-2.94
2023-01-22T17:31:15.223Z,-2.86
2023-01-22T17:33:43.462Z,-2.94
2023-01-22T17:36:12.271Z,-2.88
2023-01-22T17:38:40.682Z,-3.00
2023-01-22T17:41:12.504Z,-2.75
2023-01-22T17:43:40.025Z,-2.76
2023-01-22T17:46:11.686Z,-2.82
2023-01-22T17:48:40.055Z,-2.80
2023-01-22T17:51:09.302Z,-2.74
2023-01-22T17:53:38.709Z,-2.99
2023-01-22T17:56:09.777Z,-2.73
2023-01-22T17:58:38.065Z,-2.73
2023-01-22T18:01:07.436Z,-2.67
2023-01-22T18:03:35.778Z,-2.63
2023-01-22T18:06:03.879Z,-2.66
2023-01-22T18:08:33.269Z,-2.68
2023-01-22T18:11:06.483Z,-2.66
2023-01-22T18:13:35.750Z,-2.73
2023-01-22T18:16:03.451Z,-2.67
2023-01-22T18:18:30.949Z,-2.64
2023-01-22T18:20:58.474Z,-2.64
2023-01-22T18:23:26.288Z,-2.64
2023-01-22T18:25:57.792Z,-2.69
2023-01-22T18:28:27.621Z,-2.68
2023-01-22T18:30:57.108Z,-2.70
2023-01-22T18:33:24.821Z,-2.57
2023-01-22T18:35:54.165Z,-2.75
2023-01-22T18:38:25.188Z,-2.80
2023-01-22T18:40:53.157Z,-2.75
2023-01-22T18:43:20.893Z,-2.58
2023-01-22T18:45:48.801Z,-2.65
2023-01-22T18:48:25.131Z,-2.98
2023-01-22T18:50:55.711Z,-2.59
2023-01-22T18:53:23.387Z,-2.65
2023-01-22T18:55:51.076Z,-2.54
2023-01-22T18:58:27.390Z,-2.44
2023-01-22T19:00:55.957Z,-2.73
2023-01-22T19:03:29.174Z,-2.60
2023-01-22T19:05:57.038Z,-2.57
2023-01-22T19:08:25.012Z,-2.67
2023-01-22T19:13:36.097Z,-2.50
2023-01-22T19:16:06.733Z,-2.53
2023-01-22T19:18:36.189Z,-2.58
2023-01-22T19:21:07.248Z,-2.53
2023-01-22T19:23:36.754Z,-2.45
2023-01-22T19:26:06.688Z,-2.45
2023-01-22T19:28:35.214Z,-2.51
2023-01-22T19:31:03.379Z,-2.91
2023-01-22T19:33:31.153Z,-2.53
2023-01-22T19:36:00.251Z,-2.94
2023-01-22T19:38:30.424Z,-2.83
2023-01-22T19:40:58.092Z,-2.58
2023-01-22T19:43:26.888Z,-2.66
2023-01-22T19:45:54.596Z,-2.60
2023-01-22T19:48:28.309Z,-2.66
2023-01-22T19:51:00.112Z,-2.98
2023-01-22T19:53:28.269Z,-2.54
2023-01-22T19:55:57.557Z,-2.55
2023-01-22T19:58:25.453Z,-2.51
2023-01-22T20:00:54.282Z,-2.55
2023-01-22T20:03:23.364Z,-2.57
2023-01-22T20:05:51.611Z,-2.52
2023-01-22T20:08:20.546Z,-2.53
2023-01-22T20:10:50.979Z,-2.57
2023-01-22T20:13:18.684Z,-2.66
2023-01-22T20:15:46.452Z,-2.56
2023-01-22T20:18:14.253Z,-3.00
2023-01-22T20:20:44.325Z,-2.60
2023-01-22T20:23:12.234Z,-2.61
2023-01-22T20:25:41.899Z,-2.88
2023-01-22T20:28:10.711Z,-2.92
2023-01-22T20:30:38.291Z,-2.55
2023-01-22T20:33:05.853Z,-2.79
2023-01-22T20:35:33.394Z,-2.62
2023-01-22T20:38:00.842Z,-2.66
2023-01-22T20:40:28.295Z,-2.62
2023-01-22T20:42:57.102Z,-2.55
2023-01-22T20:45:24.548Z,-2.52
2023-01-22T20:47:52.000Z,-2.56
2023-01-22T20:50:19.577Z,-2.49
2023-01-22T20:52:47.087Z,-2.58
2023-01-22T20:55:15.472Z,-2.49
2023-01-22T20:57:43.132Z,-2.54
2023-01-22T21:00:13.568Z,-2.38
2023-01-22T21:02:41.010Z,-2.38
2023-01-22T21:05:09.220Z,-2.33
2023-01-22T21:07:36.771Z,-2.40
2023-01-22T21:10:04.610Z,-2.42
2023-01-22T21:12:32.217Z,-2.26
2023-01-22T21:14:59.786Z,-2.30
2023-01-22T21:17:28.626Z,-2.41
2023-01-22T21:19:56.149Z,-2.30
2023-01-22T21:22:23.612Z,-2.31
2023-01-22T21:24:51.083Z,-2.32
2023-01-22T21:27:18.612Z,-2.29
2023-01-22T21:29:46.084Z,-2.31
2023-01-22T21:32:15.186Z,-2.31
2023-01-22T21:34:44.056Z,-2.30
2023-01-22T21:37:11.547Z,-2.26
2023-01-22T21:39:44.833Z,-2.29
2023-01-22T21:42:30.176Z,-2.22
2023-01-22T21:45:15.283Z,-2.19
2023-01-22T21:47:43.186Z,-2.25
2023-01-22T21:50:12.432Z,-2.24
2023-01-22T21:52:41.644Z,-2.31
2023-01-22T21:55:10.647Z,-2.25
2023-01-22T21:57:46.083Z,-2.18
2023-01-22T22:00:19.312Z,-2.60
2023-01-22T22:02:47.101Z,-2.40
2023-01-22T22:05:16.104Z,-2.32
2023-01-22T22:07:43.672Z,-2.38
2023-01-22T22:10:14.630Z,-2.39
2023-01-22T22:12:42.593Z,-2.37
2023-01-22T22:15:11.526Z,-2.29
2023-01-22T22:17:39.516Z,-2.39
2023-01-22T22:20:08.315Z,-2.37
2023-01-22T22:22:37.185Z,-2.40
2023-01-22T22:25:05.029Z,-2.42
2023-01-22T22:27:36.605Z,-2.43
2023-01-22T22:30:08.036Z,-2.36
2023-01-22T22:32:36.872Z,-2.23
2023-01-22T22:35:05.551Z,-2.43
2023-01-22T22:37:33.133Z,-2.27
2023-01-22T22:40:01.970Z,-2.29
2023-01-22T22:42:29.436Z,-2.36
2023-01-22T22:44:57.044Z,-2.35
2023-01-22T22:47:24.719Z,-2.22
2023-01-22T22:49:55.760Z,-2.44
2023-01-22T22:52:23.354Z,-2.19
2023-01-22T22:54:50.911Z,-2.15
2023-01-22T22:57:19.716Z,-2.26
2023-01-22T22:59:47.185Z,-2.33
2023-01-22T23:02:14.694Z,-2.40
2023-01-22T23:04:42.213Z,-2.44
2023-01-22T23:07:09.906Z,-2.40
2023-01-22T23:09:37.383Z,-2.36
2023-01-22T23:12:05.537Z,-2.40
2023-01-22T23:14:38.798Z,-2.43
2023-01-22T23:17:06.683Z,-2.41
2023-01-22T23:19:34.160Z,-2.33
2023-01-22T23:22:02.487Z,-2.66
2023-01-22T23:24:31.817Z,-2.36
2023-01-22T23:27:04.228Z,-2.25
2023-01-22T23:29:41.118Z,-2.64
2023-01-22T23:32:10.034Z,-2.31
2023-01-22T23:34:37.512Z,-2.32
2023-01-22T23:37:05.147Z,-2.35
2023-01-22T23:39:32.851Z,-2.39
2023-01-22T23:42:02.373Z,-2.53
2023-01-22T23:44:33.723Z,-2.75
2023-01-22T23:47:01.217Z,-2.47
2023-01-22T23:49:30.041Z,-2.32
2023-01-22T23:51:57.557Z,-2.14
2023-01-22T23:54:24.999Z,-2.06
2023-01-22T23:56:52.514Z,-2.10
2023-01-22T23:59:20.022Z,-2.27
